sensor_id;sensor_type;location;lat;lon;timestamp;pressure;altitude;pressure_sealevel;temperature;humidity
62055;BME280;48653;51.742;-1.256;2023-05-25T00:01:55;102097.39;;;15.04;42.48
62055;BME280;48653;51.742;-1.256;2023-05-25T00:04:20;102098.78;;;14.57;43.04
62055;BME280;48653;51.742;-1.256;2023-05-25T00:06:46;102101.41;;;14.98;41.93
62055;BME280;48653;51.742;-1.256;2023-05-25T00:09:11;102100.30;;;14.53;42.73
62055;BME280;48653;51.742;-1.256;2023-05-25T00:11:36;102100.65;;;14.71;42.16
62055;BME280;48653;51.742;-1.256;2023-05-25T00:14:03;102100.97;;;14.25;42.87
62055;BME280;48653;51.742;-1.256;2023-05-25T00:16:27;102099.98;;;14.62;42.67
62055;BME280;48653;51.742;-1.256;2023-05-25T00:18:53;102100.60;;;14.88;42.77
62055;BME280;48653;51.742;-1.256;2023-05-25T00:21:19;102098.56;;;14.43;43.62
62055;BME280;48653;51.742;-1.256;2023-05-25T00:23:44;102097.70;;;14.29;43.65
62055;BME280;48653;51.742;-1.256;2023-05-25T00:26:09;102097.20;;;14.90;42.27
62055;BME280;48653;51.742;-1.256;2023-05-25T00:28:35;102098.02;;;14.69;42.69
62055;BME280;48653;51.742;-1.256;2023-05-25T00:31:00;102100.62;;;15.30;41.60
62055;BME280;48653;51.742;-1.256;2023-05-25T00:33:26;102108.44;;;14.73;42.34
62055;BME280;48653;51.742;-1.256;2023-05-25T00:35:51;102115.27;;;13.49;44.34
62055;BME280;48653;51.742;-1.256;2023-05-25T00:38:16;102111.22;;;14.55;42.86
62055;BME280;48653;51.742;-1.256;2023-05-25T00:40:42;102110.22;;;15.10;42.14
62055;BME280;48653;51.742;-1.256;2023-05-25T00:43:07;102109.92;;;14.61;42.28
62055;BME280;48653;51.742;-1.256;2023-05-25T00:45:31;102110.34;;;15.05;42.83
62055;BME280;48653;51.742;-1.256;2023-05-25T00:47:57;102111.90;;;13.72;45.10
62055;BME280;48653;51.742;-1.256;2023-05-25T00:50:32;102112.57;;;14.53;43.63
62055;BME280;48653;51.742;-1.256;2023-05-25T00:52:48;102115.89;;;13.93;44.84
62055;BME280;48653;51.742;-1.256;2023-05-25T00:55:15;102115.10;;;14.70;43.98
62055;BME280;48653;51.742;-1.256;2023-05-25T00:57:40;102116.98;;;14.43;43.59
62055;BME280;48653;51.742;-1.256;2023-05-25T01:00:05;102116.80;;;13.53;45.45
62055;BME280;48653;51.742;-1.256;2023-05-25T01:02:29;102123.96;;;14.35;44.46
62055;BME280;48653;51.742;-1.256;2023-05-25T01:04:56;102122.98;;;13.96;44.74
62055;BME280;48653;51.742;-1.256;2023-05-25T01:07:22;102123.67;;;13.90;44.86
62055;BME280;48653;51.742;-1.256;2023-05-25T01:09:48;102120.10;;;13.61;45.82
62055;BME280;48653;51.742;-1.256;2023-05-25T01:12:14;102124.53;;;14.03;45.25
62055;BME280;48653;51.742;-1.256;2023-05-25T01:14:38;102135.16;;;14.31;44.28
62055;BME280;48653;51.742;-1.256;2023-05-25T01:17:02;102133.62;;;14.08;45.24
62055;BME280;48653;51.742;-1.256;2023-05-25T01:19:28;102137.53;;;13.10;46.49
62055;BME280;48653;51.742;-1.256;2023-05-25T01:22:00;102138.64;;;13.39;45.71
62055;BME280;48653;51.742;-1.256;2023-05-25T01:24:24;102133.82;;;14.05;45.56
62055;BME280;48653;51.742;-1.256;2023-05-25T01:29:10;102136.52;;;13.74;44.72
62055;BME280;48653;51.742;-1.256;2023-05-25T01:31:34;102139.54;;;13.44;45.51
62055;BME280;48653;51.742;-1.256;2023-05-25T01:34:01;102142.91;;;14.30;44.13
62055;BME280;48653;51.742;-1.256;2023-05-25T01:36:26;102144.42;;;14.14;44.11
62055;BME280;48653;51.742;-1.256;2023-05-25T01:38:51;102141.09;;;14.73;42.67
62055;BME280;48653;51.742;-1.256;2023-05-25T01:41:19;102140.40;;;14.24;43.53
62055;BME280;48653;51.742;-1.256;2023-05-25T01:43:43;102137.68;;;14.34;43.82
62055;BME280;48653;51.742;-1.256;2023-05-25T01:46:13;102141.54;;;13.72;45.30
62055;BME280;48653;51.742;-1.256;2023-05-25T01:48:41;102141.38;;;13.77;45.29
62055;BME280;48653;51.742;-1.256;2023-05-25T01:51:03;102141.59;;;13.99;45.76
62055;BME280;48653;51.742;-1.256;2023-05-25T01:53:28;102141.08;;;13.98;45.02
62055;BME280;48653;51.742;-1.256;2023-05-25T01:55:59;102140.65;;;13.49;45.49
62055;BME280;48653;51.742;-1.256;2023-05-25T01:58:16;102138.57;;;14.04;45.19
62055;BME280;48653;51.742;-1.256;2023-05-25T02:00:42;102145.32;;;14.41;44.33
62055;BME280;48653;51.742;-1.256;2023-05-25T02:03:06;102145.66;;;14.91;43.31
62055;BME280;48653;51.742;-1.256;2023-05-25T02:05:32;102146.86;;;13.88;44.31
62055;BME280;48653;51.742;-1.256;2023-05-25T02:07:57;102151.02;;;14.10;43.80
62055;BME280;48653;51.742;-1.256;2023-05-25T02:10:24;102153.36;;;14.12;44.11
62055;BME280;48653;51.742;-1.256;2023-05-25T02:12:49;102150.43;;;14.55;43.04
62055;BME280;48653;51.742;-1.256;2023-05-25T02:15:15;102151.78;;;14.21;43.55
62055;BME280;48653;51.742;-1.256;2023-05-25T02:17:39;102155.70;;;13.90;44.24
62055;BME280;48653;51.742;-1.256;2023-05-25T02:20:05;102158.83;;;13.49;45.17
62055;BME280;48653;51.742;-1.256;2023-05-25T02:22:29;102160.39;;;14.02;45.21
62055;BME280;48653;51.742;-1.256;2023-05-25T02:24:54;102161.89;;;14.37;44.55
62055;BME280;48653;51.742;-1.256;2023-05-25T02:27:20;102156.95;;;14.14;44.87
62055;BME280;48653;51.742;-1.256;2023-05-25T02:29:47;102154.00;;;14.16;44.84
62055;BME280;48653;51.742;-1.256;2023-05-25T02:32:11;102146.45;;;13.50;46.45
62055;BME280;48653;51.742;-1.256;2023-05-25T02:34:36;102139.73;;;14.05;45.42
62055;BME280;48653;51.742;-1.256;2023-05-25T02:37:03;102137.21;;;14.13;44.87
62055;BME280;48653;51.742;-1.256;2023-05-25T02:39:28;102139.02;;;14.44;44.50
62055;BME280;48653;51.742;-1.256;2023-05-25T02:41:54;102141.25;;;14.29;43.75
62055;BME280;48653;51.742;-1.256;2023-05-25T02:44:21;102137.49;;;15.02;43.26
62055;BME280;48653;51.742;-1.256;2023-05-25T02:46:44;102135.16;;;14.76;44.17
62055;BME280;48653;51.742;-1.256;2023-05-25T02:49:10;102139.45;;;14.28;44.29
62055;BME280;48653;51.742;-1.256;2023-05-25T02:51:35;102145.36;;;14.47;44.20
62055;BME280;48653;51.742;-1.256;2023-05-25T02:54:01;102148.74;;;14.41;44.23
62055;BME280;48653;51.742;-1.256;2023-05-25T02:56:26;102149.33;;;14.40;44.40
62055;BME280;48653;51.742;-1.256;2023-05-25T02:58:51;102152.84;;;14.04;45.25
62055;BME280;48653;51.742;-1.256;2023-05-25T03:01:16;102155.34;;;13.30;47.18
62055;BME280;48653;51.742;-1.256;2023-05-25T03:03:43;102159.53;;;13.04;47.28
62055;BME280;48653;51.742;-1.256;2023-05-25T03:06:08;102158.24;;;13.71;47.30
62055;BME280;48653;51.742;-1.256;2023-05-25T03:08:32;102156.74;;;13.41;47.90
62055;BME280;48653;51.742;-1.256;2023-05-25T03:10:58;102161.41;;;14.09;46.18
62055;BME280;48653;51.742;-1.256;2023-05-25T03:13:24;102162.55;;;14.46;45.53
62055;BME280;48653;51.742;-1.256;2023-05-25T03:15:48;102160.64;;;14.20;45.57
62055;BME280;48653;51.742;-1.256;2023-05-25T03:18:14;102159.99;;;14.60;44.81
62055;BME280;48653;51.742;-1.256;2023-05-25T03:20:39;102160.78;;;14.48;44.50
62055;BME280;48653;51.742;-1.256;2023-05-25T03:23:04;102156.62;;;14.36;44.88
62055;BME280;48653;51.742;-1.256;2023-05-25T03:25:30;102156.86;;;14.73;43.94
62055;BME280;48653;51.742;-1.256;2023-05-25T03:27:56;102155.07;;;15.30;43.47
62055;BME280;48653;51.742;-1.256;2023-05-25T03:30:22;102153.26;;;15.46;43.05
62055;BME280;48653;51.742;-1.256;2023-05-25T03:32:46;102155.54;;;14.79;44.09
62055;BME280;48653;51.742;-1.256;2023-05-25T03:35:12;102150.98;;;15.09;43.99
62055;BME280;48653;51.742;-1.256;2023-05-25T03:37:37;102158.02;;;14.93;44.15
62055;BME280;48653;51.742;-1.256;2023-05-25T03:40:04;102159.52;;;14.68;44.47
62055;BME280;48653;51.742;-1.256;2023-05-25T03:42:28;102158.42;;;15.27;43.84
62055;BME280;48653;51.742;-1.256;2023-05-25T03:44:54;102155.64;;;15.78;43.12
62055;BME280;48653;51.742;-1.256;2023-05-25T03:47:20;102159.14;;;14.89;45.11
62055;BME280;48653;51.742;-1.256;2023-05-25T03:49:45;102160.41;;;14.44;44.58
62055;BME280;48653;51.742;-1.256;2023-05-25T03:52:11;102161.51;;;14.82;43.98
62055;BME280;48653;51.742;-1.256;2023-05-25T03:54:36;102158.12;;;14.45;44.83
62055;BME280;48653;51.742;-1.256;2023-05-25T03:57:01;102157.78;;;14.58;44.93
62055;BME280;48653;51.742;-1.256;2023-05-25T03:59:27;102159.93;;;14.51;44.82
62055;BME280;48653;51.742;-1.256;2023-05-25T04:01:52;102163.70;;;14.61;44.62
62055;BME280;48653;51.742;-1.256;2023-05-25T04:04:19;102164.63;;;14.53;45.34
62055;BME280;48653;51.742;-1.256;2023-05-25T04:06:43;102164.83;;;14.86;44.72
62055;BME280;48653;51.742;-1.256;2023-05-25T04:09:08;102164.11;;;14.32;45.52
62055;BME280;48653;51.742;-1.256;2023-05-25T04:11:33;102161.53;;;14.48;45.38
62055;BME280;48653;51.742;-1.256;2023-05-25T04:14:00;102163.03;;;15.22;44.10
62055;BME280;48653;51.742;-1.256;2023-05-25T04:16:25;102164.98;;;15.15;44.22
62055;BME280;48653;51.742;-1.256;2023-05-25T04:18:50;102163.40;;;15.30;43.72
62055;BME280;48653;51.742;-1.256;2023-05-25T04:21:16;102163.40;;;15.35;43.87
62055;BME280;48653;51.742;-1.256;2023-05-25T04:23:41;102162.99;;;15.32;43.94
62055;BME280;48653;51.742;-1.256;2023-05-25T04:26:08;102159.81;;;15.31;44.03
62055;BME280;48653;51.742;-1.256;2023-05-25T04:28:33;102162.10;;;14.81;44.66
62055;BME280;48653;51.742;-1.256;2023-05-25T04:30:57;102159.65;;;15.33;43.94
62055;BME280;48653;51.742;-1.256;2023-05-25T04:33:24;102160.33;;;15.80;43.00
62055;BME280;48653;51.742;-1.256;2023-05-25T04:35:49;102164.28;;;14.97;44.02
62055;BME280;48653;51.742;-1.256;2023-05-25T04:38:14;102167.37;;;15.15;44.33
62055;BME280;48653;51.742;-1.256;2023-05-25T04:40:40;102171.41;;;15.10;44.41
62055;BME280;48653;51.742;-1.256;2023-05-25T04:43:04;102173.06;;;15.71;43.12
62055;BME280;48653;51.742;-1.256;2023-05-25T04:45:30;102174.83;;;15.61;44.16
62055;BME280;48653;51.742;-1.256;2023-05-25T04:47:56;102180.56;;;14.76;45.86
62055;BME280;48653;51.742;-1.256;2023-05-25T04:50:21;102183.38;;;14.86;45.81
62055;BME280;48653;51.742;-1.256;2023-05-25T04:52:46;102185.00;;;14.90;45.92
62055;BME280;48653;51.742;-1.256;2023-05-25T04:55:12;102186.76;;;15.21;45.62
62055;BME280;48653;51.742;-1.256;2023-05-25T04:57:37;102190.51;;;15.19;45.41
62055;BME280;48653;51.742;-1.256;2023-05-25T05:00:03;102196.77;;;15.12;45.25
62055;BME280;48653;51.742;-1.256;2023-05-25T05:02:28;102199.05;;;15.21;44.79
62055;BME280;48653;51.742;-1.256;2023-05-25T05:04:53;102204.22;;;15.18;45.13
62055;BME280;48653;51.742;-1.256;2023-05-25T05:07:19;102210.96;;;15.42;44.79
62055;BME280;48653;51.742;-1.256;2023-05-25T05:09:44;102207.74;;;14.89;45.45
62055;BME280;48653;51.742;-1.256;2023-05-25T05:12:09;102209.54;;;15.27;44.99
62055;BME280;48653;51.742;-1.256;2023-05-25T05:14:35;102208.98;;;15.12;45.43
62055;BME280;48653;51.742;-1.256;2023-05-25T05:17:00;102211.70;;;15.32;45.02
62055;BME280;48653;51.742;-1.256;2023-05-25T05:19:26;102210.24;;;15.78;44.13
62055;BME280;48653;51.742;-1.256;2023-05-25T05:21:51;102209.26;;;16.20;43.88
62055;BME280;48653;51.742;-1.256;2023-05-25T05:24:16;102208.97;;;15.22;44.45
62055;BME280;48653;51.742;-1.256;2023-05-25T05:26:42;102206.98;;;15.43;45.30
62055;BME280;48653;51.742;-1.256;2023-05-25T05:29:07;102207.40;;;15.17;44.82
62055;BME280;48653;51.742;-1.256;2023-05-25T05:31:32;102213.22;;;15.38;44.61
62055;BME280;48653;51.742;-1.256;2023-05-25T05:33:58;102214.39;;;15.51;44.31
62055;BME280;48653;51.742;-1.256;2023-05-25T05:36:23;102218.38;;;15.61;44.22
62055;BME280;48653;51.742;-1.256;2023-05-25T05:38:49;102222.97;;;15.59;44.37
62055;BME280;48653;51.742;-1.256;2023-05-25T05:41:14;102230.14;;;14.92;45.57
62055;BME280;48653;51.742;-1.256;2023-05-25T05:43:40;102230.76;;;15.05;45.88
62055;BME280;48653;51.742;-1.256;2023-05-25T05:46:05;102236.58;;;14.97;45.59
62055;BME280;48653;51.742;-1.256;2023-05-25T05:48:31;102232.85;;;15.14;45.00
62055;BME280;48653;51.742;-1.256;2023-05-25T05:50:56;102239.94;;;15.52;45.08
62055;BME280;48653;51.742;-1.256;2023-05-25T05:53:22;102238.59;;;15.65;44.08
62055;BME280;48653;51.742;-1.256;2023-05-25T05:55:47;102243.21;;;16.42;43.15
62055;BME280;48653;51.742;-1.256;2023-05-25T05:58:12;102248.97;;;15.76;44.17
62055;BME280;48653;51.742;-1.256;2023-05-25T06:00:37;102250.47;;;15.62;43.81
62055;BME280;48653;51.742;-1.256;2023-05-25T06:03:03;102253.32;;;15.59;44.09
62055;BME280;48653;51.742;-1.256;2023-05-25T06:05:28;102252.70;;;15.40;44.55
62055;BME280;48653;51.742;-1.256;2023-05-25T06:07:53;102252.95;;;15.21;44.92
62055;BME280;48653;51.742;-1.256;2023-05-25T06:10:18;102252.68;;;15.07;45.82
62055;BME280;48653;51.742;-1.256;2023-05-25T06:12:44;102250.66;;;15.75;44.66
62055;BME280;48653;51.742;-1.256;2023-05-25T06:15:10;102251.12;;;15.74;44.20
62055;BME280;48653;51.742;-1.256;2023-05-25T06:17:36;102250.67;;;16.37;42.81
62055;BME280;48653;51.742;-1.256;2023-05-25T06:20:00;102258.09;;;16.01;43.61
62055;BME280;48653;51.742;-1.256;2023-05-25T06:24:51;102261.10;;;15.91;43.63
62055;BME280;48653;51.742;-1.256;2023-05-25T06:27:17;102259.88;;;16.49;43.04
62055;BME280;48653;51.742;-1.256;2023-05-25T06:29:42;102261.16;;;15.76;44.28
62055;BME280;48653;51.742;-1.256;2023-05-25T06:32:10;102256.14;;;15.34;44.34
62055;BME280;48653;51.742;-1.256;2023-05-25T06:34:34;102253.92;;;16.32;42.96
62055;BME280;48653;51.742;-1.256;2023-05-25T06:36:59;102257.72;;;16.50;42.68
62055;BME280;48653;51.742;-1.256;2023-05-25T06:39:25;102258.62;;;16.94;42.43
62055;BME280;48653;51.742;-1.256;2023-05-25T06:41:50;102257.83;;;16.58;42.09
62055;BME280;48653;51.742;-1.256;2023-05-25T06:44:15;102261.86;;;17.81;41.01
62055;BME280;48653;51.742;-1.256;2023-05-25T06:46:42;102261.99;;;17.38;41.25
62055;BME280;48653;51.742;-1.256;2023-05-25T06:49:06;102263.45;;;17.38;40.41
62055;BME280;48653;51.742;-1.256;2023-05-25T06:51:31;102268.42;;;17.24;41.18
62055;BME280;48653;51.742;-1.256;2023-05-25T06:53:56;102268.62;;;16.84;41.13
62055;BME280;48653;51.742;-1.256;2023-05-25T06:56:22;102267.05;;;17.80;40.45
62055;BME280;48653;51.742;-1.256;2023-05-25T06:58:47;102270.41;;;17.68;40.24
62055;BME280;48653;51.742;-1.256;2023-05-25T07:01:13;102271.87;;;17.91;39.60
62055;BME280;48653;51.742;-1.256;2023-05-25T07:03:38;102273.90;;;17.43;39.93
62055;BME280;48653;51.742;-1.256;2023-05-25T07:08:30;102275.38;;;17.19;39.30
62055;BME280;48653;51.742;-1.256;2023-05-25T07:10:55;102277.57;;;18.14;39.06
62055;BME280;48653;51.742;-1.256;2023-05-25T07:13:20;102275.29;;;18.63;38.50
62055;BME280;48653;51.742;-1.256;2023-05-25T07:15:46;102273.62;;;18.31;38.41
62055;BME280;48653;51.742;-1.256;2023-05-25T07:18:12;102272.37;;;18.16;37.65
62055;BME280;48653;51.742;-1.256;2023-05-25T07:20:38;102272.89;;;19.00;36.67
62055;BME280;48653;51.742;-1.256;2023-05-25T07:23:02;102272.52;;;18.95;36.21
62055;BME280;48653;51.742;-1.256;2023-05-25T07:25:28;102270.56;;;18.00;37.40
62055;BME280;48653;51.742;-1.256;2023-05-25T07:27:58;102271.32;;;18.92;36.90
62055;BME280;48653;51.742;-1.256;2023-05-25T07:30:18;102277.29;;;19.13;36.64
62055;BME280;48653;51.742;-1.256;2023-05-25T07:32:43;102278.08;;;18.77;35.34
62055;BME280;48653;51.742;-1.256;2023-05-25T07:35:09;102281.08;;;18.49;36.45
62055;BME280;48653;51.742;-1.256;2023-05-25T07:37:35;102282.63;;;19.46;34.15
62055;BME280;48653;51.742;-1.256;2023-05-25T07:40:00;102281.70;;;19.68;34.36
62055;BME280;48653;51.742;-1.256;2023-05-25T07:42:25;102285.98;;;18.82;34.62
62055;BME280;48653;51.742;-1.256;2023-05-25T07:44:50;102283.64;;;19.15;34.92
62055;BME280;48653;51.742;-1.256;2023-05-25T07:47:15;102286.30;;;19.01;35.98
62055;BME280;48653;51.742;-1.256;2023-05-25T07:49:40;102289.51;;;19.11;35.42
62055;BME280;48653;51.742;-1.256;2023-05-25T07:52:05;102294.51;;;18.01;36.80
62055;BME280;48653;51.742;-1.256;2023-05-25T07:54:30;102292.58;;;18.47;36.75
62055;BME280;48653;51.742;-1.256;2023-05-25T07:56:55;102291.48;;;18.65;36.53
62055;BME280;48653;51.742;-1.256;2023-05-25T07:59:21;102294.05;;;18.71;36.12
62055;BME280;48653;51.742;-1.256;2023-05-25T08:01:46;102295.54;;;18.17;36.56
62055;BME280;48653;51.742;-1.256;2023-05-25T08:04:11;102300.48;;;18.75;36.32
62055;BME280;48653;51.742;-1.256;2023-05-25T08:06:36;102298.95;;;17.90;37.62
62055;BME280;48653;51.742;-1.256;2023-05-25T08:09:03;102306.90;;;18.01;37.21
62055;BME280;48653;51.742;-1.256;2023-05-25T08:11:27;102307.93;;;17.68;37.53
62055;BME280;48653;51.742;-1.256;2023-05-25T08:13:52;102303.78;;;17.96;37.53
62055;BME280;48653;51.742;-1.256;2023-05-25T08:16:18;102307.32;;;18.04;37.81
62055;BME280;48653;51.742;-1.256;2023-05-25T08:18:43;102307.24;;;18.08;37.87
62055;BME280;48653;51.742;-1.256;2023-05-25T08:21:08;102309.82;;;18.64;37.14
62055;BME280;48653;51.742;-1.256;2023-05-25T08:23:34;102311.38;;;18.88;36.23
62055;BME280;48653;51.742;-1.256;2023-05-25T08:26:00;102314.63;;;18.62;35.51
62055;BME280;48653;51.742;-1.256;2023-05-25T08:28:24;102320.23;;;19.82;35.05
62055;BME280;48653;51.742;-1.256;2023-05-25T08:30:49;102317.51;;;19.62;34.65
62055;BME280;48653;51.742;-1.256;2023-05-25T08:33:15;102310.09;;;19.96;34.78
62055;BME280;48653;51.742;-1.256;2023-05-25T08:35:40;102311.72;;;20.37;35.02
62055;BME280;48653;51.742;-1.256;2023-05-25T08:38:05;102310.29;;;21.05;33.21
62055;BME280;48653;51.742;-1.256;2023-05-25T08:40:30;102309.13;;;21.20;32.12
62055;BME280;48653;51.742;-1.256;2023-05-25T08:42:55;102313.95;;;21.75;31.73
62055;BME280;48653;51.742;-1.256;2023-05-25T08:45:20;102312.58;;;21.45;31.88
62055;BME280;48653;51.742;-1.256;2023-05-25T08:47:47;102313.88;;;21.19;32.53
62055;BME280;48653;51.742;-1.256;2023-05-25T08:50:11;102311.37;;;21.24;32.98
62055;BME280;48653;51.742;-1.256;2023-05-25T08:52:38;102309.33;;;22.10;31.25
62055;BME280;48653;51.742;-1.256;2023-05-25T08:55:04;102308.97;;;22.10;30.68
62055;BME280;48653;51.742;-1.256;2023-05-25T08:57:33;102314.75;;;21.84;31.23
62055;BME280;48653;51.742;-1.256;2023-05-25T08:59:58;102311.74;;;22.22;30.63
62055;BME280;48653;51.742;-1.256;2023-05-25T09:02:22;102313.48;;;21.86;30.95
62055;BME280;48653;51.742;-1.256;2023-05-25T09:07:08;102307.76;;;21.49;31.39
62055;BME280;48653;51.742;-1.256;2023-05-25T09:09:33;102313.84;;;21.94;31.70
62055;BME280;48653;51.742;-1.256;2023-05-25T09:12:00;102309.07;;;21.68;30.22
62055;BME280;48653;51.742;-1.256;2023-05-25T09:14:25;102304.77;;;20.94;31.03
62055;BME280;48653;51.742;-1.256;2023-05-25T09:16:50;102311.71;;;22.26;30.94
62055;BME280;48653;51.742;-1.256;2023-05-25T09:19:16;102314.36;;;22.11;29.81
62055;BME280;48653;51.742;-1.256;2023-05-25T09:21:40;102312.85;;;21.75;30.49
62055;BME280;48653;51.742;-1.256;2023-05-25T09:24:07;102315.42;;;21.46;31.01
62055;BME280;48653;51.742;-1.256;2023-05-25T09:26:33;102315.12;;;22.31;29.91
62055;BME280;48653;51.742;-1.256;2023-05-25T09:28:57;102317.24;;;22.28;31.17
62055;BME280;48653;51.742;-1.256;2023-05-25T09:31:23;102314.08;;;21.07;31.13
62055;BME280;48653;51.742;-1.256;2023-05-25T09:33:48;102313.02;;;21.86;30.07
62055;BME280;48653;51.742;-1.256;2023-05-25T09:36:15;102318.79;;;21.22;31.02
62055;BME280;48653;51.742;-1.256;2023-05-25T09:38:39;102320.22;;;21.61;29.85
62055;BME280;48653;51.742;-1.256;2023-05-25T09:41:05;102318.21;;;21.46;30.16
62055;BME280;48653;51.742;-1.256;2023-05-25T09:43:31;102322.05;;;22.19;31.47
62055;BME280;48653;51.742;-1.256;2023-05-25T09:45:55;102324.27;;;22.53;30.17
62055;BME280;48653;51.742;-1.256;2023-05-25T09:48:21;102319.75;;;22.62;30.14
62055;BME280;48653;51.742;-1.256;2023-05-25T09:50:45;102326.44;;;21.87;30.84
62055;BME280;48653;51.742;-1.256;2023-05-25T09:53:12;102326.42;;;22.56;29.21
62055;BME280;48653;51.742;-1.256;2023-05-25T09:55:37;102328.03;;;22.82;29.11
62055;BME280;48653;51.742;-1.256;2023-05-25T09:58:02;102327.05;;;23.12;30.02
62055;BME280;48653;51.742;-1.256;2023-05-25T10:00:27;102323.57;;;22.59;30.07
62055;BME280;48653;51.742;-1.256;2023-05-25T10:02:52;102326.65;;;22.31;29.46
62055;BME280;48653;51.742;-1.256;2023-05-25T10:05:17;102328.66;;;22.54;29.86
62055;BME280;48653;51.742;-1.256;2023-05-25T10:07:44;102325.22;;;23.00;29.53
62055;BME280;48653;51.742;-1.256;2023-05-25T10:10:09;102326.83;;;23.23;30.44
62055;BME280;48653;51.742;-1.256;2023-05-25T10:12:34;102335.39;;;24.40;28.54
62055;BME280;48653;51.742;-1.256;2023-05-25T10:15:02;102337.74;;;23.58;27.33
62055;BME280;48653;51.742;-1.256;2023-05-25T10:17:25;102340.81;;;22.74;29.10
62055;BME280;48653;51.742;-1.256;2023-05-25T10:19:54;102335.08;;;22.63;28.91
62055;BME280;48653;51.742;-1.256;2023-05-25T10:22:18;102338.06;;;22.71;28.18
62055;BME280;48653;51.742;-1.256;2023-05-25T10:24:44;102340.18;;;22.90;29.32
62055;BME280;48653;51.742;-1.256;2023-05-25T10:27:05;102344.02;;;22.38;29.61
62055;BME280;48653;51.742;-1.256;2023-05-25T10:29:29;102350.34;;;23.26;28.22
62055;BME280;48653;51.742;-1.256;2023-05-25T10:31:55;102347.40;;;22.30;29.14
62055;BME280;48653;51.742;-1.256;2023-05-25T10:34:21;102345.22;;;21.68;29.20
62055;BME280;48653;51.742;-1.256;2023-05-25T10:36:45;102344.80;;;22.91;29.41
62055;BME280;48653;51.742;-1.256;2023-05-25T10:39:10;102359.50;;;22.22;28.68
62055;BME280;48653;51.742;-1.256;2023-05-25T10:41:35;102351.13;;;22.18;28.64
62055;BME280;48653;51.742;-1.256;2023-05-25T10:44:01;102350.10;;;22.22;30.33
62055;BME280;48653;51.742;-1.256;2023-05-25T10:46:27;102349.52;;;23.04;28.96
62055;BME280;48653;51.742;-1.256;2023-05-25T10:48:52;102356.61;;;22.19;28.57
62055;BME280;48653;51.742;-1.256;2023-05-25T10:51:18;102348.01;;;22.86;28.72
62055;BME280;48653;51.742;-1.256;2023-05-25T10:53:43;102353.91;;;22.55;28.63
62055;BME280;48653;51.742;-1.256;2023-05-25T10:56:08;102347.88;;;22.99;28.83
62055;BME280;48653;51.742;-1.256;2023-05-25T10:58:40;102345.78;;;23.81;27.64
62055;BME280;48653;51.742;-1.256;2023-05-25T11:01:00;102342.61;;;22.95;28.73
62055;BME280;48653;51.742;-1.256;2023-05-25T11:05:49;102352.96;;;22.12;29.44
62055;BME280;48653;51.742;-1.256;2023-05-25T11:08:14;102349.57;;;21.29;30.45
62055;BME280;48653;51.742;-1.256;2023-05-25T11:10:42;102348.66;;;21.52;31.79
62055;BME280;48653;51.742;-1.256;2023-05-25T11:13:21;102348.16;;;21.77;31.07
62055;BME280;48653;51.742;-1.256;2023-05-25T11:15:30;102356.98;;;21.65;31.25
62055;BME280;48653;51.742;-1.256;2023-05-25T11:17:58;102353.67;;;21.60;30.42
62055;BME280;48653;51.742;-1.256;2023-05-25T11:20:22;102353.42;;;20.76;31.51
62055;BME280;48653;51.742;-1.256;2023-05-25T11:22:49;102345.40;;;22.01;30.72
62055;BME280;48653;51.742;-1.256;2023-05-25T11:27:44;102347.03;;;21.64;31.87
62055;BME280;48653;51.742;-1.256;2023-05-25T11:30:03;102352.16;;;21.87;30.93
62055;BME280;48653;51.742;-1.256;2023-05-25T11:32:28;102352.53;;;22.99;30.06
62055;BME280;48653;51.742;-1.256;2023-05-25T11:34:58;102354.92;;;21.90;29.49
62055;BME280;48653;51.742;-1.256;2023-05-25T11:37:19;102355.08;;;22.19;30.41
62055;BME280;48653;51.742;-1.256;2023-05-25T11:39:46;102350.78;;;22.60;30.89
62055;BME280;48653;51.742;-1.256;2023-05-25T11:42:09;102343.12;;;22.95;30.14
62055;BME280;48653;51.742;-1.256;2023-05-25T11:44:35;102353.52;;;22.29;29.71
62055;BME280;48653;51.742;-1.256;2023-05-25T11:47:04;102352.86;;;22.43;29.51
62055;BME280;48653;51.742;-1.256;2023-05-25T11:49:25;102350.70;;;23.57;29.62
62055;BME280;48653;51.742;-1.256;2023-05-25T11:51:52;102349.08;;;23.78;28.68
62055;BME280;48653;51.742;-1.256;2023-05-25T11:54:22;102346.79;;;23.39;28.44
62055;BME280;48653;51.742;-1.256;2023-05-25T11:56:41;102350.16;;;22.21;29.50
62055;BME280;48653;51.742;-1.256;2023-05-25T11:59:07;102351.79;;;22.48;29.47
62055;BME280;48653;51.742;-1.256;2023-05-25T12:01:31;102354.74;;;21.90;31.12
62055;BME280;48653;51.742;-1.256;2023-05-25T12:03:57;102350.22;;;22.17;29.54
62055;BME280;48653;51.742;-1.256;2023-05-25T12:06:23;102352.42;;;22.05;29.20
62055;BME280;48653;51.742;-1.256;2023-05-25T12:08:48;102358.51;;;20.75;30.30
62055;BME280;48653;51.742;-1.256;2023-05-25T12:11:13;102349.65;;;20.54;30.59
62055;BME280;48653;51.742;-1.256;2023-05-25T12:13:40;102357.40;;;20.21;31.78
62055;BME280;48653;51.742;-1.256;2023-05-25T12:16:04;102351.41;;;21.03;32.21
62055;BME280;48653;51.742;-1.256;2023-05-25T12:18:30;102353.72;;;21.94;31.71
62055;BME280;48653;51.742;-1.256;2023-05-25T12:20:55;102352.17;;;21.23;30.97
62055;BME280;48653;51.742;-1.256;2023-05-25T12:23:20;102352.99;;;21.04;32.00
62055;BME280;48653;51.742;-1.256;2023-05-25T12:25:46;102348.01;;;21.50;32.01
62055;BME280;48653;51.742;-1.256;2023-05-25T12:28:11;102338.34;;;21.74;31.13
62055;BME280;48653;51.742;-1.256;2023-05-25T12:30:37;102349.61;;;21.75;31.02
62055;BME280;48653;51.742;-1.256;2023-05-25T12:33:02;102349.61;;;21.49;31.75
62055;BME280;48653;51.742;-1.256;2023-05-25T12:35:27;102346.88;;;21.84;31.07
62055;BME280;48653;51.742;-1.256;2023-05-25T12:40:18;102351.51;;;23.40;29.49
62055;BME280;48653;51.742;-1.256;2023-05-25T12:42:42;102340.87;;;23.03;28.80
62055;BME280;48653;51.742;-1.256;2023-05-25T12:45:10;102344.60;;;22.81;29.46
62055;BME280;48653;51.742;-1.256;2023-05-25T12:47:34;102346.19;;;21.78;30.11